Time;durP1;ratioP1;P1;durP2;ratioP2;P2;SDS_P1;SDS_P2;PMS_P1;PMS_P2;Temp;Humidity;BMP_temperature;BMP_pressure;BME280_temperature;BME280_humidity;BME280_pressure;Samples;Min_cycle;Max_cycle;Signal;HPM_P1;HPM_P2
2023/04/25 00:00:00;;;;;;;24.13;7.25;;;;;;;;;;5054599;28;20079;-72
2023/04/25 00:02:27;;;;;;;25.73;7.15;;;;;;;;;;5049275;28;20532;-73
2023/04/25 00:04:57;;;;;;;32.72;7.75;;;;;;;;;;5054456;28;20166;-72
2023/04/25 00:07:23;;;;;;;44.72;8.50;;;;;;;;;;5054379;28;20067;-72
2023/04/25 00:09:50;;;;;;;39.50;6.90;;;;;;;;;;5054296;28;20029;-72
2023/04/25 00:12:16;;;;;;;35.75;6.90;;;;;;;;;;5054185;28;20029;-73
2023/04/25 00:14:42;;;;;;;31.58;6.47;;;;;;;;;;5054246;28;20478;-73
2023/04/25 00:17:09;;;;;;;37.08;6.22;;;;;;;;;;5054365;28;20025;-72
2023/04/25 00:19:34;;;;;;;41.92;7.03;;;;;;;;;;5054207;28;20032;-72
2023/04/25 00:22:00;;;;;;;40.42;6.28;;;;;;;;;;5054060;28;20025;-73
2023/04/25 00:24:26;;;;;;;52.65;8.10;;;;;;;;;;5054213;28;20021;-73
2023/04/25 00:26:52;;;;;;;38.92;6.07;;;;;;;;;;5054003;28;20399;-72
2023/04/25 00:29:18;;;;;;;38.40;6.18;;;;;;;;;;5053935;28;20029;-73
2023/04/25 00:31:44;;;;;;;46.97;6.00;;;;;;;;;;5053753;28;20375;-72
2023/04/25 00:34:10;;;;;;;54.10;7.88;;;;;;;;;;5053963;28;20562;-73
2023/04/25 00:36:36;;;;;;;33.20;5.85;;;;;;;;;;5053954;28;20134;-73
2023/04/25 00:39:04;;;;;;;47.05;6.88;;;;;;;;;;5053840;28;20104;-72
2023/04/25 00:41:30;;;;;;;42.65;6.53;;;;;;;;;;5055447;28;20025;-73
2023/04/25 00:43:56;;;;;;;50.05;6.45;;;;;;;;;;5058100;28;20029;-71
2023/04/25 00:46:22;;;;;;;33.65;5.43;;;;;;;;;;5060479;28;20059;-72
2023/04/25 00:48:48;;;;;;;39.60;5.82;;;;;;;;;;5058926;28;20099;-73
2023/04/25 00:51:16;;;;;;;47.20;6.28;;;;;;;;;;5058991;28;20052;-72
2023/04/25 00:53:42;;;;;;;49.25;5.80;;;;;;;;;;5053266;28;20048;-72
2023/04/25 00:56:08;;;;;;;48.17;6.63;;;;;;;;;;5053513;28;20021;-72
2023/04/25 00:58:35;;;;;;;48.50;6.30;;;;;;;;;;5053567;28;20101;-73
2023/04/25 01:01:01;;;;;;;49.28;6.15;;;;;;;;;;5053496;28;20031;-72
2023/04/25 01:03:28;;;;;;;49.92;7.00;;;;;;;;;;5053203;28;20017;-72
2023/04/25 01:05:54;;;;;;;53.10;6.72;;;;;;;;;;5053364;28;20483;-73
2023/04/25 01:08:25;;;;;;;62.50;7.68;;;;;;;;;;5053391;28;20047;-72
2023/04/25 01:10:51;;;;;;;42.47;6.07;;;;;;;;;;5053462;28;20025;-72
2023/04/25 01:13:17;;;;;;;46.88;6.72;;;;;;;;;;5053121;28;20040;-72
2023/04/25 01:15:43;;;;;;;49.40;6.70;;;;;;;;;;5053214;28;20025;-72
2023/04/25 01:18:10;;;;;;;42.83;6.15;;;;;;;;;;5052956;28;20467;-72
2023/04/25 01:20:38;;;;;;;41.30;7.35;;;;;;;;;;5053036;28;20029;-72
2023/04/25 01:23:04;;;;;;;54.15;7.43;;;;;;;;;;5052911;28;20050;-72
2023/04/25 01:25:31;;;;;;;51.28;7.07;;;;;;;;;;5052524;28;20032;-73
2023/04/25 01:27:58;;;;;;;56.60;7.50;;;;;;;;;;5052818;28;20041;-73
2023/04/25 01:30:24;;;;;;;53.53;7.65;;;;;;;;;;5052980;28;20033;-72
2023/04/25 01:32:50;;;;;;;57.20;7.90;;;;;;;;;;5052547;28;20029;-72
2023/04/25 01:35:16;;;;;;;60.92;8.02;;;;;;;;;;5052767;28;20083;-72
2023/04/25 01:37:43;;;;;;;43.25;6.65;;;;;;;;;;5052610;28;20430;-72
2023/04/25 01:40:10;;;;;;;51.38;7.57;;;;;;;;;;5052621;28;20052;-73
2023/04/25 01:42:38;;;;;;;58.97;7.50;;;;;;;;;;5051821;28;20476;-72
2023/04/25 01:45:04;;;;;;;46.28;6.97;;;;;;;;;;5052629;28;20029;-73
2023/04/25 01:47:30;;;;;;;49.13;6.25;;;;;;;;;;5052537;28;20033;-72
2023/04/25 01:49:56;;;;;;;45.10;6.80;;;;;;;;;;5052757;28;20029;-72
2023/04/25 01:52:22;;;;;;;43.08;6.57;;;;;;;;;;5052058;28;20032;-72
2023/04/25 01:54:49;;;;;;;38.90;7.00;;;;;;;;;;5052446;28;20036;-72
2023/04/25 01:57:15;;;;;;;43.35;6.38;;;;;;;;;;5052247;28;20478;-72
2023/04/25 01:59:43;;;;;;;37.97;6.35;;;;;;;;;;5051630;28;20043;-73
2023/04/25 02:02:08;;;;;;;44.45;6.78;;;;;;;;;;5049714;28;20481;-72
2023/04/25 02:04:34;;;;;;;46.60;6.80;;;;;;;;;;5051364;28;20021;-72
2023/04/25 02:07:00;;;;;;;41.47;6.68;;;;;;;;;;5065593;28;20032;-73
2023/04/25 02:09:26;;;;;;;38.92;5.57;;;;;;;;;;5071329;28;20098;-73
2023/04/25 02:11:53;;;;;;;36.70;5.65;;;;;;;;;;5070796;28;20111;-71
2023/04/25 02:14:19;;;;;;;43.25;5.53;;;;;;;;;;5071281;28;20036;-71
2023/04/25 02:16:46;;;;;;;47.38;7.18;;;;;;;;;;5070889;28;20070;-73
2023/04/25 02:19:12;;;;;;;57.40;6.43;;;;;;;;;;5071180;28;20024;-73
2023/04/25 02:21:38;;;;;;;52.70;6.95;;;;;;;;;;5071124;28;20033;-72
2023/04/25 02:24:04;;;;;;;40.85;6.22;;;;;;;;;;5070996;28;20095;-72
2023/04/25 02:26:30;;;;;;;48.45;6.55;;;;;;;;;;5070862;28;20036;-73
2023/04/25 02:28:57;;;;;;;36.92;6.25;;;;;;;;;;5070943;28;20025;-72
2023/04/25 02:31:23;;;;;;;40.38;6.40;;;;;;;;;;5070619;28;20028;-72
2023/04/25 02:33:49;;;;;;;35.95;5.93;;;;;;;;;;5070277;28;20047;-71
2023/04/25 02:36:15;;;;;;;50.28;7.22;;;;;;;;;;5069798;28;20498;-72
2023/04/25 02:38:41;;;;;;;31.08;6.05;;;;;;;;;;5070339;28;20074;-72
2023/04/25 02:41:07;;;;;;;43.38;6.53;;;;;;;;;;5070239;28;20024;-71
2023/04/25 02:43:33;;;;;;;51.72;7.85;;;;;;;;;;5070456;28;20102;-73
2023/04/25 02:45:59;;;;;;;36.20;5.85;;;;;;;;;;5070420;28;20075;-72
2023/04/25 02:48:25;;;;;;;35.70;6.20;;;;;;;;;;5070874;28;20501;-72
2023/04/25 02:50:51;;;;;;;39.70;5.70;;;;;;;;;;5070220;28;20040;-72
2023/04/25 02:53:17;;;;;;;48.38;6.00;;;;;;;;;;5070475;28;20027;-73
2023/04/25 02:55:43;;;;;;;45.70;6.00;;;;;;;;;;5070096;28;20040;-73
2023/04/25 02:58:08;;;;;;;36.00;5.93;;;;;;;;;;5070528;28;20025;-72
2023/04/25 03:00:34;;;;;;;35.42;5.60;;;;;;;;;;5070182;28;20387;-72
2023/04/25 03:03:00;;;;;;;46.90;6.47;;;;;;;;;;5070181;28;20035;-72
2023/04/25 03:05:26;;;;;;;36.15;6.28;;;;;;;;;;5070150;28;20025;-72
2023/04/25 03:07:52;;;;;;;51.72;6.63;;;;;;;;;;5070187;28;20472;-71
2023/04/25 03:10:18;;;;;;;40.53;5.97;;;;;;;;;;5070054;28;20028;-72
2023/04/25 03:12:44;;;;;;;52.03;6.55;;;;;;;;;;5070042;28;20052;-71
2023/04/25 03:15:10;;;;;;;35.40;5.22;;;;;;;;;;5070065;28;20428;-75
2023/04/25 03:17:36;;;;;;;40.33;5.75;;;;;;;;;;5070251;28;20029;-75
2023/04/25 03:20:03;;;;;;;32.85;5.53;;;;;;;;;;5070196;28;20051;-74
2023/04/25 03:22:29;;;;;;;32.30;5.18;;;;;;;;;;5070683;28;20019;-73
2023/04/25 03:24:55;;;;;;;38.63;5.60;;;;;;;;;;5070093;28;20028;-72
2023/04/25 03:27:21;;;;;;;44.75;5.95;;;;;;;;;;5069958;28;20160;-71
2023/04/25 03:29:47;;;;;;;42.60;7.03;;;;;;;;;;5070368;28;20375;-72
2023/04/25 03:32:13;;;;;;;30.65;5.78;;;;;;;;;;5069878;28;20024;-70
2023/04/25 03:34:39;;;;;;;41.35;5.53;;;;;;;;;;5070447;28;20032;-71
2023/04/25 03:37:05;;;;;;;31.77;5.55;;;;;;;;;;5069837;28;20203;-71
2023/04/25 03:39:31;;;;;;;41.28;6.25;;;;;;;;;;5070103;28;20462;-71
2023/04/25 03:41:57;;;;;;;47.53;6.28;;;;;;;;;;5070213;28;20032;-72
2023/04/25 03:44:24;;;;;;;49.88;8.45;;;;;;;;;;5070874;28;20102;-72
2023/04/25 03:46:50;;;;;;;37.65;6.07;;;;;;;;;;5070590;28;20124;-71
2023/04/25 03:49:16;;;;;;;40.65;5.85;;;;;;;;;;5073318;28;20028;-71
2023/04/25 03:51:42;;;;;;;40.65;5.63;;;;;;;;;;5074535;28;20059;-72
2023/04/25 03:54:08;;;;;;;30.23;4.85;;;;;;;;;;5074965;28;20035;-71
2023/04/25 03:56:34;;;;;;;39.88;6.55;;;;;;;;;;5074597;28;20385;-70
2023/04/25 03:59:00;;;;;;;39.15;5.97;;;;;;;;;;5072972;28;20024;-73
2023/04/25 04:01:26;;;;;;;43.78;7.15;;;;;;;;;;5073116;28;20028;-71
2023/04/25 04:03:52;;;;;;;42.83;6.60;;;;;;;;;;5073292;28;20028;-71
2023/04/25 04:06:20;;;;;;;33.97;6.35;;;;;;;;;;5073442;28;20321;-71
2023/04/25 04:08:46;;;;;;;40.30;5.90;;;;;;;;;;5073401;28;20040;-72
2023/04/25 04:11:12;;;;;;;32.25;5.90;;;;;;;;;;5072925;28;20028;-71
2023/04/25 04:13:38;;;;;;;31.55;5.35;;;;;;;;;;5073278;28;20025;-71
2023/04/25 04:16:05;;;;;;;33.10;5.13;;;;;;;;;;5072478;28;20017;-71
2023/04/25 04:18:31;;;;;;;28.67;5.43;;;;;;;;;;5073240;28;20017;-72
2023/04/25 04:20:58;;;;;;;42.45;6.03;;;;;;;;;;5073284;28;20020;-72
2023/04/25 04:23:24;;;;;;;46.78;6.18;;;;;;;;;;5073103;28;20104;-72
2023/04/25 04:25:50;;;;;;;35.80;4.78;;;;;;;;;;5072912;28;20035;-72
2023/04/25 04:28:16;;;;;;;25.60;4.78;;;;;;;;;;5073064;28;20032;-73
2023/04/25 04:30:45;;;;;;;34.15;5.60;;;;;;;;;;5072925;28;20112;-75
2023/04/25 04:33:12;;;;;;;39.55;6.05;;;;;;;;;;5073406;28;20017;-72
2023/04/25 04:35:38;;;;;;;35.10;5.30;;;;;;;;;;5072963;28;20024;-71
2023/04/25 04:38:04;;;;;;;25.95;5.07;;;;;;;;;;5072262;28;20104;-70
2023/04/25 04:40:31;;;;;;;35.05;5.53;;;;;;;;;;5072899;28;20095;-72
2023/04/25 04:42:57;;;;;;;29.23;4.95;;;;;;;;;;5072329;28;20510;-71
2023/04/25 04:45:23;;;;;;;33.38;5.57;;;;;;;;;;5072535;28;20499;-73
2023/04/25 04:47:49;;;;;;;34.22;6.22;;;;;;;;;;5072898;28;20029;-75
2023/04/25 04:50:16;;;;;;;41.58;5.65;;;;;;;;;;5050386;28;20033;-72
2023/04/25 04:52:42;;;;;;;25.20;4.90;;;;;;;;;;5051994;28;20049;-72
2023/04/25 04:55:08;;;;;;;38.22;5.40;;;;;;;;;;5052365;28;20040;-73
2023/04/25 04:57:35;;;;;;;34.80;5.32;;;;;;;;;;5055536;28;20033;-73
2023/04/25 05:00:01;;;;;;;33.60;4.78;;;;;;;;;;5062538;28;20024;-73
2023/04/25 05:02:27;;;;;;;28.27;5.70;;;;;;;;;;5053878;28;20029;-73
2023/04/25 05:04:53;;;;;;;36.83;5.55;;;;;;;;;;5053441;28;20028;-73
2023/04/25 05:07:19;;;;;;;36.78;6.00;;;;;;;;;;5052951;28;20517;-72
2023/04/25 05:09:45;;;;;;;32.17;5.00;;;;;;;;;;5052755;28;20040;-73
2023/04/25 05:12:11;;;;;;;29.17;5.03;;;;;;;;;;5052680;28;20025;-73
2023/04/25 05:14:37;;;;;;;30.58;5.18;;;;;;;;;;5053111;28;20025;-72
2023/04/25 05:17:06;;;;;;;24.98;4.78;;;;;;;;;;5053378;28;20028;-73
2023/04/25 05:19:33;;;;;;;31.60;5.05;;;;;;;;;;5053083;28;20024;-73
2023/04/25 05:21:59;;;;;;;31.23;4.78;;;;;;;;;;5053449;28;20039;-72
2023/04/25 05:24:25;;;;;;;26.25;4.90;;;;;;;;;;5052971;28;20103;-72
2023/04/25 05:26:51;;;;;;;38.55;4.85;;;;;;;;;;5052854;28;20029;-73
2023/04/25 05:29:17;;;;;;;24.85;4.85;;;;;;;;;;5047803;28;20039;-76
2023/04/25 05:31:43;;;;;;;30.30;4.70;;;;;;;;;;5051724;28;20028;-74
2023/04/25 05:34:09;;;;;;;30.85;4.72;;;;;;;;;;5054602;28;20044;-73
2023/04/25 05:36:35;;;;;;;31.90;4.47;;;;;;;;;;5055387;28;20467;-73
2023/04/25 05:39:01;;;;;;;41.63;6.28;;;;;;;;;;5055735;28;20040;-73
2023/04/25 05:41:27;;;;;;;29.60;5.28;;;;;;;;;;5050076;28;20025;-73
2023/04/25 05:43:52;;;;;;;26.70;4.57;;;;;;;;;;5052141;28;20401;-73
2023/04/25 05:46:19;;;;;;;27.65;4.68;;;;;;;;;;5052482;28;20036;-72
2023/04/25 05:48:46;;;;;;;33.28;5.57;;;;;;;;;;5055364;28;20127;-74
2023/04/25 05:51:12;;;;;;;26.63;5.05;;;;;;;;;;5051991;28;20087;-72
2023/04/25 05:53:38;;;;;;;29.20;4.88;;;;;;;;;;5052143;28;20037;-73
2023/04/25 05:56:04;;;;;;;27.85;4.57;;;;;;;;;;5051847;28;20036;-72
2023/04/25 05:58:30;;;;;;;29.92;5.20;;;;;;;;;;5051768;28;20100;-74
2023/04/25 06:00:56;;;;;;;29.38;5.22;;;;;;;;;;5053550;28;20033;-73
2023/04/25 06:03:22;;;;;;;36.08;6.05;;;;;;;;;;5051410;28;20029;-73
2023/04/25 06:05:48;;;;;;;27.65;4.50;;;;;;;;;;5051688;28;20028;-75
2023/04/25 06:08:14;;;;;;;22.20;5.00;;;;;;;;;;5051592;28;20032;-74
2023/04/25 06:10:40;;;;;;;42.83;5.75;;;;;;;;;;5051736;28;20339;-74
2023/04/25 06:13:06;;;;;;;29.95;5.25;;;;;;;;;;5051505;28;20115;-73
2023/04/25 06:15:32;;;;;;;28.48;4.97;;;;;;;;;;5051701;28;20079;-75
2023/04/25 06:17:58;;;;;;;34.17;5.40;;;;;;;;;;5051378;28;20068;-74
2023/04/25 06:20:24;;;;;;;40.47;6.07;;;;;;;;;;5062907;28;20025;-72
2023/04/25 06:22:51;;;;;;;43.35;5.35;;;;;;;;;;5071538;28;20107;-72
2023/04/25 06:25:17;;;;;;;32.63;5.13;;;;;;;;;;5071656;28;20024;-71
2023/04/25 06:27:43;;;;;;;34.85;4.82;;;;;;;;;;5071553;28;20055;-71
2023/04/25 06:30:11;;;;;;;31.48;5.03;;;;;;;;;;5072114;28;20074;-75
2023/04/25 06:32:37;;;;;;;50.45;5.43;;;;;;;;;;5071585;28;20103;-73
2023/04/25 06:35:03;;;;;;;33.25;4.25;;;;;;;;;;5071839;28;20067;-72
2023/04/25 06:37:30;;;;;;;27.23;4.93;;;;;;;;;;5072247;28;20028;-72
2023/04/25 06:39:56;;;;;;;32.65;4.78;;;;;;;;;;5072746;28;20081;-72
2023/04/25 06:42:22;;;;;;;37.78;5.55;;;;;;;;;;5072396;28;20386;-71
2023/04/25 06:44:48;;;;;;;35.67;4.72;;;;;;;;;;5071927;28;20379;-74
2023/04/25 06:47:14;;;;;;;32.78;4.88;;;;;;;;;;5071852;28;20025;-72
2023/04/25 06:49:40;;;;;;;30.73;5.13;;;;;;;;;;5071946;28;20048;-72
2023/04/25 06:52:06;;;;;;;33.92;4.88;;;;;;;;;;5071688;28;20406;-71
2023/04/25 06:54:32;;;;;;;29.75;4.18;;;;;;;;;;5070318;28;20029;-72
2023/04/25 06:57:00;;;;;;;36.72;5.00;;;;;;;;;;5070687;28;20024;-72
2023/04/25 06:59:26;;;;;;;25.50;4.43;;;;;;;;;;5071134;28;20517;-73
2023/04/25 07:01:52;;;;;;;31.20;3.75;;;;;;;;;;5070268;28;20069;-72
2023/04/25 07:04:18;;;;;;;31.83;5.05;;;;;;;;;;5070599;28;20021;-72
2023/04/25 07:06:44;;;;;;;24.75;3.65;;;;;;;;;;5070181;28;20548;-72
2023/04/25 07:09:11;;;;;;;21.77;4.07;;;;;;;;;;5069321;28;20079;-71
2023/04/25 07:11:37;;;;;;;34.15;4.35;;;;;;;;;;5070257;28;20459;-71
2023/04/25 07:14:03;;;;;;;27.63;3.88;;;;;;;;;;5070206;28;20059;-72
2023/04/25 07:16:29;;;;;;;31.08;4.40;;;;;;;;;;5070718;28;20386;-71
2023/04/25 07:18:55;;;;;;;24.15;4.15;;;;;;;;;;5070490;28;20024;-71
2023/04/25 07:21:21;;;;;;;18.42;3.65;;;;;;;;;;5070275;28;20021;-71
2023/04/25 07:23:47;;;;;;;32.88;4.43;;;;;;;;;;5072126;28;20116;-72
2023/04/25 07:26:13;;;;;;;34.55;4.10;;;;;;;;;;5074274;28;20428;-72
2023/04/25 07:28:39;;;;;;;28.83;3.53;;;;;;;;;;5074302;28;20033;-73
2023/04/25 07:31:05;;;;;;;25.17;3.78;;;;;;;;;;5074615;28;20024;-72
2023/04/25 07:33:31;;;;;;;21.60;3.75;;;;;;;;;;5073514;28;20089;-71
2023/04/25 07:35:57;;;;;;;30.88;3.78;;;;;;;;;;5073966;28;20028;-71
2023/04/25 07:38:23;;;;;;;26.27;4.45;;;;;;;;;;5073887;28;20024;-71
2023/04/25 07:40:49;;;;;;;24.05;4.43;;;;;;;;;;5074007;28;20035;-72
2023/04/25 07:43:16;;;;;;;21.25;3.47;;;;;;;;;;5073668;28;20027;-71
2023/04/25 07:45:46;;;;;;;25.75;4.40;;;;;;;;;;5073454;28;20078;-71
2023/04/25 07:48:12;;;;;;;28.38;4.20;;;;;;;;;;5073837;28;20048;-72
2023/04/25 07:50:38;;;;;;;18.48;3.42;;;;;;;;;;5073996;28;20029;-72
2023/04/25 07:53:04;;;;;;;23.27;4.25;;;;;;;;;;5073618;28;20028;-73
2023/04/25 07:55:30;;;;;;;25.10;3.63;;;;;;;;;;5073969;28;20023;-72
2023/04/25 07:57:56;;;;;;;30.27;4.90;;;;;;;;;;5074393;28;20028;-73
2023/04/25 08:00:22;;;;;;;22.15;4.00;;;;;;;;;;5074845;28;20070;-72
2023/04/25 08:02:48;;;;;;;22.42;4.68;;;;;;;;;;5074385;28;20390;-72
2023/04/25 08:05:14;;;;;;;21.13;3.10;;;;;;;;;;5075950;28;20032;-75
2023/04/25 08:07:41;;;;;;;28.45;4.50;;;;;;;;;;5074620;28;20039;-72
2023/04/25 08:10:08;;;;;;;30.30;4.50;;;;;;;;;;5074298;28;20024;-71
2023/04/25 08:12:34;;;;;;;23.48;3.90;;;;;;;;;;5074470;28;20028;-70
2023/04/25 08:15:00;;;;;;;18.55;3.38;;;;;;;;;;5066070;28;20047;-72
2023/04/25 08:17:26;;;;;;;19.80;3.22;;;;;;;;;;5054200;28;20029;-70
2023/04/25 08:19:52;;;;;;;23.85;3.25;;;;;;;;;;5058823;28;20032;-70
2023/04/25 08:22:18;;;;;;;29.50;3.17;;;;;;;;;;5073918;28;20029;-71
2023/04/25 08:24:44;;;;;;;21.75;3.38;;;;;;;;;;5074065;28;20100;-71
2023/04/25 08:27:10;;;;;;;23.42;3.45;;;;;;;;;;5073936;28;20112;-70
2023/04/25 08:29:37;;;;;;;22.92;3.30;;;;;;;;;;5074269;28;20571;-71
2023/04/25 08:32:03;;;;;;;23.75;3.78;;;;;;;;;;5073496;28;20024;-72
2023/04/25 08:34:29;;;;;;;23.65;3.55;;;;;;;;;;5072462;28;20090;-71
2023/04/25 08:36:55;;;;;;;30.30;4.30;;;;;;;;;;5073701;28;20435;-71
2023/04/25 08:39:21;;;;;;;30.20;5.30;;;;;;;;;;5073476;28;20111;-71
2023/04/25 08:41:47;;;;;;;29.60;5.18;;;;;;;;;;5073410;28;20044;-71
2023/04/25 08:44:13;;;;;;;36.40;4.63;;;;;;;;;;5074176;28;20029;-70
2023/04/25 08:46:40;;;;;;;20.90;3.90;;;;;;;;;;5073817;28;20528;-71
2023/04/25 08:49:07;;;;;;;27.67;4.75;;;;;;;;;;5073933;28;20601;-70
2023/04/25 08:51:33;;;;;;;33.63;4.10;;;;;;;;;;5074297;28;20032;-71
2023/04/25 08:54:26;;;;;;;29.00;3.83;;;;;;;;;;5076290;28;20066;-71
2023/04/25 08:56:52;;;;;;;29.40;4.30;;;;;;;;;;5074474;28;20036;-72
2023/04/25 08:59:18;;;;;;;24.35;3.83;;;;;;;;;;5074153;28;20386;-71
2023/04/25 09:01:45;;;;;;;28.75;4.28;;;;;;;;;;5074525;28;20021;-73
2023/04/25 09:04:12;;;;;;;28.65;5.32;;;;;;;;;;5076240;28;20016;-74
2023/04/25 09:06:38;;;;;;;25.75;3.30;;;;;;;;;;5058792;28;20036;-73
2023/04/25 09:09:06;;;;;;;19.58;3.08;;;;;;;;;;5073274;28;20036;-71
2023/04/25 09:11:32;;;;;;;22.25;4.07;;;;;;;;;;5073111;28;20324;-72
2023/04/25 09:14:30;;;;;;;18.83;3.45;;;;;;;;;;5072893;28;20101;-70
2023/04/25 09:16:56;;;;;;;19.80;2.63;;;;;;;;;;5049996;28;20067;-70
2023/04/25 09:19:23;;;;;;;21.30;4.18;;;;;;;;;;5072872;28;20394;-71
2023/04/25 09:21:49;;;;;;;15.77;2.78;;;;;;;;;;5072709;28;20028;-70
2023/04/25 09:24:15;;;;;;;25.58;3.25;;;;;;;;;;5072878;28;20024;-71
2023/04/25 09:26:41;;;;;;;21.85;3.05;;;;;;;;;;5072919;28;20031;-70
2023/04/25 09:29:08;;;;;;;19.33;3.10;;;;;;;;;;5072675;28;20044;-73
2023/04/25 09:31:34;;;;;;;21.55;3.28;;;;;;;;;;5072730;28;20074;-72
2023/04/25 09:34:00;;;;;;;31.25;4.82;;;;;;;;;;5072280;28;20100;-73
2023/04/25 09:36:27;;;;;;;22.67;4.00;;;;;;;;;;5072564;28;20028;-74
2023/04/25 09:38:53;;;;;;;20.13;3.10;;;;;;;;;;5073393;28;20025;-73
2023/04/25 09:41:23;;;;;;;22.75;3.40;;;;;;;;;;5075863;28;20021;-76
2023/04/25 09:43:50;;;;;;;27.83;3.70;;;;;;;;;;5073609;28;20025;-73
2023/04/25 09:46:17;;;;;;;18.75;2.75;;;;;;;;;;5072982;28;20020;-71
2023/04/25 09:48:48;;;;;;;26.52;4.85;;;;;;;;;;5073312;28;20371;-71
2023/04/25 09:51:14;;;;;;;27.65;4.25;;;;;;;;;;5074027;28;20032;-71
2023/04/25 09:53:41;;;;;;;21.83;4.20;;;;;;;;;;5075148;28;20033;-71
2023/04/25 09:56:08;;;;;;;30.63;4.28;;;;;;;;;;5075345;28;20036;-72
2023/04/25 09:58:35;;;;;;;25.77;4.25;;;;;;;;;;5072167;28;20070;-71
2023/04/25 10:01:02;;;;;;;24.40;4.10;;;;;;;;;;5072273;28;20046;-71
2023/04/25 10:03:32;;;;;;;25.10;4.78;;;;;;;;;;5071710;28;20095;-71
2023/04/25 10:06:02;;;;;;;14.98;2.60;;;;;;;;;;5072092;28;20624;-70
2023/04/25 10:08:33;;;;;;;17.73;2.83;;;;;;;;;;5071686;28;20131;-72
2023/04/25 10:11:03;;;;;;;11.20;2.60;;;;;;;;;;5072196;28;20044;-71
2023/04/25 10:13:30;;;;;;;10.43;2.35;;;;;;;;;;5072012;28;20490;-72
2023/04/25 10:16:00;;;;;;;18.52;3.05;;;;;;;;;;5072107;28;20047;-71
2023/04/25 10:18:27;;;;;;;21.90;3.05;;;;;;;;;;5071870;28;20043;-69
2023/04/25 10:20:57;;;;;;;18.40;2.97;;;;;;;;;;5071950;28;20024;-70
2023/04/25 10:23:23;;;;;;;19.75;3.40;;;;;;;;;;5072094;28;20024;-71
2023/04/25 10:25:53;;;;;;;16.15;2.80;;;;;;;;;;5072425;28;20033;-71
2023/04/25 10:28:19;;;;;;;19.35;3.30;;;;;;;;;;5071674;28;20517;-71
2023/04/25 10:31:12;;;;;;;29.08;4.57;;;;;;;;;;5071605;28;20430;-72
2023/04/25 10:33:39;;;;;;;17.95;3.03;;;;;;;;;;5069428;28;20169;-70
2023/04/25 10:36:15;;;;;;;18.63;3.30;;;;;;;;;;5071942;28;20028;-71
2023/04/25 10:38:45;;;;;;;17.52;2.67;;;;;;;;;;5071424;28;20029;-71
2023/04/25 10:41:11;;;;;;;19.58;3.10;;;;;;;;;;5071383;28;20039;-71
2023/04/25 10:43:39;;;;;;;18.35;3.53;;;;;;;;;;5071256;28;20094;-69
2023/04/25 10:46:25;;;;;;;25.02;3.13;;;;;;;;;;5071757;28;20371;-71
2023/04/25 10:48:52;;;;;;;17.27;2.63;;;;;;;;;;5071071;28;20025;-71
2023/04/25 10:51:22;;;;;;;24.67;4.13;;;;;;;;;;5071289;28;20032;-71
2023/04/25 10:53:57;;;;;;;22.80;3.28;;;;;;;;;;5071207;28;20436;-71
2023/04/25 10:56:25;;;;;;;14.55;2.42;;;;;;;;;;5071527;28;20103;-71
2023/04/25 10:58:51;;;;;;;14.90;2.75;;;;;;;;;;5073650;28;20397;-71
2023/04/25 11:01:21;;;;;;;24.98;4.32;;;;;;;;;;5075716;28;20021;-71
2023/04/25 11:03:50;;;;;;;17.05;2.88;;;;;;;;;;5075302;28;20390;-70
2023/04/25 11:06:22;;;;;;;15.45;2.40;;;;;;;;;;5075375;28;20476;-71
2023/04/25 11:08:49;;;;;;;16.92;2.80;;;;;;;;;;5075111;28;20116;-72
2023/04/25 11:11:16;;;;;;;13.25;2.15;;;;;;;;;;5075086;28;20025;-71
2023/04/25 11:13:42;;;;;;;16.42;2.95;;;;;;;;;;5075099;28;20107;-71
2023/04/25 11:16:08;;;;;;;16.60;2.45;;;;;;;;;;5075481;28;20112;-71
2023/04/25 11:18:34;;;;;;;16.90;2.78;;;;;;;;;;5075360;28;20021;-71
2023/04/25 11:21:00;;;;;;;13.85;2.92;;;;;;;;;;5075292;28;20021;-72
2023/04/25 11:23:26;;;;;;;15.48;2.35;;;;;;;;;;5075896;28;20031;-71
2023/04/25 11:25:53;;;;;;;17.05;2.75;;;;;;;;;;5075307;28;20142;-72
2023/04/25 11:28:23;;;;;;;21.85;3.75;;;;;;;;;;5074992;28;20525;-71
2023/04/25 11:30:52;;;;;;;19.23;2.40;;;;;;;;;;5074938;28;20025;-73
2023/04/25 11:33:18;;;;;;;21.00;3.25;;;;;;;;;;5074871;28;20027;-73
2023/04/25 11:35:44;;;;;;;15.38;3.05;;;;;;;;;;5075120;28;20048;-74
2023/04/25 11:38:10;;;;;;;14.80;2.30;;;;;;;;;;5075494;28;20021;-70
2023/04/25 11:40:36;;;;;;;14.32;3.22;;;;;;;;;;5074495;28;20024;-72
2023/04/25 11:43:03;;;;;;;16.60;3.00;;;;;;;;;;5075201;28;20021;-73
2023/04/25 11:45:30;;;;;;;18.05;3.28;;;;;;;;;;5066853;28;20029;-71
2023/04/25 11:47:57;;;;;;;15.63;3.08;;;;;;;;;;5070511;28;20121;-71
2023/04/25 11:50:22;;;;;;;12.23;2.30;;;;;;;;;;5069489;28;20486;-72
2023/04/25 11:52:49;;;;;;;12.10;2.40;;;;;;;;;;5054577;28;20072;-72
2023/04/25 11:55:18;;;;;;;8.48;1.67;;;;;;;;;;5054920;28;20111;-72
2023/04/25 11:57:47;;;;;;;16.65;3.05;;;;;;;;;;5054574;28;20029;-71
2023/04/25 12:00:16;;;;;;;11.50;1.98;;;;;;;;;;5054455;28;20478;-73
2023/04/25 12:02:43;;;;;;;5.53;1.65;;;;;;;;;;5053820;28;20367;-72
2023/04/25 12:05:10;;;;;;;9.35;2.03;;;;;;;;;;5054428;28;20079;-72
2023/04/25 12:07:37;;;;;;;14.77;2.33;;;;;;;;;;5054494;28;20120;-73
2023/04/25 12:10:10;;;;;;;10.18;1.67;;;;;;;;;;5054120;28;20017;-73
2023/04/25 12:12:36;;;;;;;15.05;3.08;;;;;;;;;;5054204;28;20025;-72
2023/04/25 12:15:17;;;;;;;18.90;2.60;;;;;;;;;;5053932;28;20483;-72
2023/04/25 12:17:45;;;;;;;16.60;2.42;;;;;;;;;;5054650;28;20029;-71
2023/04/25 12:20:13;;;;;;;11.60;2.28;;;;;;;;;;5054402;28;20032;-72
2023/04/25 12:22:44;;;;;;;11.52;3.05;;;;;;;;;;5053689;28;20025;-73
2023/04/25 12:25:10;;;;;;;17.58;2.30;;;;;;;;;;5054253;28;20108;-72
2023/04/25 12:27:36;;;;;;;14.45;2.50;;;;;;;;;;5054061;28;20499;-71
2023/04/25 12:30:03;;;;;;;14.45;2.72;;;;;;;;;;5053966;28;20025;-72
2023/04/25 12:32:29;;;;;;;18.00;2.97;;;;;;;;;;5053924;28;20036;-74
2023/04/25 12:34:55;;;;;;;12.27;2.70;;;;;;;;;;5054830;28;20031;-72
2023/04/25 12:37:21;;;;;;;18.27;3.17;;;;;;;;;;5054791;28;20110;-71
2023/04/25 12:39:47;;;;;;;9.13;2.03;;;;;;;;;;5053718;28;20079;-72
2023/04/25 12:42:13;;;;;;;14.02;2.83;;;;;;;;;;5051094;28;20430;-73
2023/04/25 12:44:40;;;;;;;12.18;2.22;;;;;;;;;;5053457;28;20061;-73
2023/04/25 12:47:06;;;;;;;17.63;2.80;;;;;;;;;;5055178;28;20083;-72
2023/04/25 12:49:32;;;;;;;16.40;2.53;;;;;;;;;;5054135;28;20033;-71
2023/04/25 12:51:59;;;;;;;10.30;2.55;;;;;;;;;;5056357;28;20043;-73
2023/04/25 12:54:25;;;;;;;17.58;3.10;;;;;;;;;;5053461;28;20032;-73
2023/04/25 12:56:52;;;;;;;19.98;3.10;;;;;;;;;;5052986;28;20060;-71
2023/04/25 12:59:19;;;;;;;10.68;2.47;;;;;;;;;;5053004;28;20462;-72
2023/04/25 13:01:45;;;;;;;16.27;2.65;;;;;;;;;;5052843;28;20382;-76
2023/04/25 13:04:11;;;;;;;15.52;2.45;;;;;;;;;;5052336;28;20032;-71
2023/04/25 13:06:37;;;;;;;15.02;2.90;;;;;;;;;;5051164;28;20103;-72
2023/04/25 13:09:04;;;;;;;15.60;3.17;;;;;;;;;;5041759;28;20032;-71
2023/04/25 13:11:30;;;;;;;10.27;3.08;;;;;;;;;;5049192;28;20072;-71
2023/04/25 13:13:56;;;;;;;11.48;2.20;;;;;;;;;;5052160;28;20075;-72
2023/04/25 13:16:22;;;;;;;10.63;2.50;;;;;;;;;;5052536;28;20571;-72
2023/04/25 13:18:48;;;;;;;15.85;2.47;;;;;;;;;;5052612;28;20025;-71
2023/04/25 13:21:14;;;;;;;9.75;2.58;;;;;;;;;;5051976;28;20025;-71
2023/04/25 13:23:42;;;;;;;15.48;2.53;;;;;;;;;;5053159;28;20032;-73
2023/04/25 13:26:08;;;;;;;12.55;3.05;;;;;;;;;;5052616;28;20028;-71
2023/04/25 13:28:34;;;;;;;12.20;2.92;;;;;;;;;;5053108;28;20043;-73
2023/04/25 13:31:00;;;;;;;14.50;3.03;;;;;;;;;;5046174;28;20028;-73
2023/04/25 13:33:26;;;;;;;14.10;3.13;;;;;;;;;;5051913;28;20116;-71
2023/04/25 13:35:56;;;;;;;21.20;3.90;;;;;;;;;;5055367;28;20025;-71
2023/04/25 13:38:23;;;;;;;22.88;3.60;;;;;;;;;;5056899;28;20457;-72
2023/04/25 13:40:51;;;;;;;15.63;3.40;;;;;;;;;;5052529;28;20028;-74
2023/04/25 13:43:17;;;;;;;14.77;3.08;;;;;;;;;;5051942;28;20112;-72
2023/04/25 13:45:43;;;;;;;13.13;3.03;;;;;;;;;;5052022;28;20064;-72
2023/04/25 13:48:09;;;;;;;19.83;3.17;;;;;;;;;;5051982;28;20107;-72
2023/04/25 13:50:35;;;;;;;14.05;2.75;;;;;;;;;;5050109;28;20029;-70
2023/04/25 13:53:01;;;;;;;12.45;2.33;;;;;;;;;;5051171;28;20068;-72
2023/04/25 13:55:27;;;;;;;13.75;2.30;;;;;;;;;;5051803;28;20437;-71
2023/04/25 13:57:53;;;;;;;9.30;2.13;;;;;;;;;;5051819;28;20028;-72
2023/04/25 14:00:20;;;;;;;12.93;3.50;;;;;;;;;;5052004;28;20394;-71
2023/04/25 14:02:46;;;;;;;18.50;3.60;;;;;;;;;;5052053;28;20021;-72
2023/04/25 14:05:12;;;;;;;10.73;2.80;;;;;;;;;;5052204;28;20017;-71
2023/04/25 14:07:39;;;;;;;15.02;3.05;;;;;;;;;;5054089;28;20037;-73
2023/04/25 14:10:05;;;;;;;16.00;2.78;;;;;;;;;;5051986;28;20043;-72
2023/04/25 14:12:31;;;;;;;16.50;3.00;;;;;;;;;;5056623;28;20035;-72
2023/04/25 14:14:57;;;;;;;16.05;3.00;;;;;;;;;;5072177;28;20402;-71
2023/04/25 14:17:23;;;;;;;16.20;2.80;;;;;;;;;;5071150;28;20021;-70
2023/04/25 14:19:50;;;;;;;15.50;2.67;;;;;;;;;;5071530;28;20049;-72
2023/04/25 14:22:16;;;;;;;19.42;3.50;;;;;;;;;;5070695;28;20028;-71
2023/04/25 14:24:42;;;;;;;21.20;3.03;;;;;;;;;;5071355;28;20024;-71
2023/04/25 14:27:08;;;;;;;14.88;2.45;;;;;;;;;;5071645;28;20029;-72